THA476 YSSY-VTBS
Flight info
| Callsign | THA476 |
|---|---|
| Flight time | N/A |
| Altitude | 38000 |
| Route | KADOM A576 TATUK/N0488F400 A576 ATMAP M635 BLI G464 PNK N875 ENREP M904 TONIK M644 ALUMO Y12 ALEMI TUMGA1C |
| Aircraft | A359/H-SDE2E3GHIJ3J4J5LM1ORWXY/LB1D1 |
Departure
| Time | N/A |
|---|---|
| Airport | Sydney Kingsford Smith International Airport (YSSY) |
Arrival
| Time | 2026-05-05 18:53 |
|---|---|
| Airport | Suvarnabhumi Airport (VTBS) |
| Time | Latitude | Longitude | Altitude | Speed | Heading |
|---|---|---|---|---|---|
| 2026-05-05 18:35 | 13.21624 | 101.24405 | 20657 ft | 442 kts | 343° |
| 2026-05-05 18:35 | 13.24529 | 101.23500 | 20380 ft | 429 kts | 343° |
| 2026-05-05 18:36 | 13.27340 | 101.22625 | 20118 ft | 416 kts | 343° |
| 2026-05-05 18:36 | 13.30077 | 101.21772 | 19861 ft | 404 kts | 343° |
| 2026-05-05 18:36 | 13.32665 | 101.20774 | 19601 ft | 394 kts | 332° |
| 2026-05-05 18:36 | 13.34807 | 101.19085 | 19198 ft | 388 kts | 312° |
| 2026-05-05 18:37 | 13.36219 | 101.16757 | 18731 ft | 385 kts | 291° |
| 2026-05-05 18:37 | 13.36895 | 101.14111 | 18265 ft | 382 kts | 281° |
| 2026-05-05 18:37 | 13.37385 | 101.11444 | 17743 ft | 379 kts | 281° |
| 2026-05-05 18:37 | 13.37880 | 101.08797 | 17213 ft | 376 kts | 281° |
| 2026-05-05 18:38 | 13.38393 | 101.06173 | 16705 ft | 373 kts | 282° |
| 2026-05-05 18:38 | 13.38916 | 101.03581 | 16191 ft | 370 kts | 282° |
| 2026-05-05 18:38 | 13.39445 | 101.01006 | 15697 ft | 367 kts | 282° |
| 2026-05-05 18:38 | 13.39955 | 100.98545 | 15209 ft | 364 kts | 282° |
| 2026-05-05 18:39 | 13.40198 | 100.97375 | 14988 ft | 363 kts | 282° |
| 2026-05-05 18:39 | 13.40686 | 100.95034 | 14536 ft | 361 kts | 282° |
| 2026-05-05 18:39 | 13.41221 | 100.92532 | 14058 ft | 358 kts | 284° |
| 2026-05-05 18:39 | 13.42148 | 100.90181 | 13523 ft | 355 kts | 302° |
| 2026-05-05 18:40 | 13.43817 | 100.88346 | 12976 ft | 352 kts | 323° |
| 2026-05-05 18:40 | 13.45832 | 100.86945 | 12449 ft | 348 kts | 328° |
| 2026-05-05 18:40 | 13.47867 | 100.85637 | 12095 ft | 340 kts | 328° |
| 2026-05-05 18:40 | 13.49839 | 100.84369 | 11858 ft | 329 kts | 328° |
| 2026-05-05 18:41 | 13.51739 | 100.83138 | 11655 ft | 318 kts | 328° |
| 2026-05-05 18:41 | 13.53608 | 100.81975 | 11352 ft | 310 kts | 333° |
| 2026-05-05 18:41 | 13.55644 | 100.81346 | 10939 ft | 306 kts | 356° |
| 2026-05-05 18:41 | 13.57712 | 100.81558 | 10554 ft | 301 kts | 13° |
| 2026-05-05 18:42 | 13.59709 | 100.82086 | 10178 ft | 298 kts | 16° |
| 2026-05-05 18:42 | 13.61683 | 100.82652 | 9790 ft | 297 kts | 16° |
| 2026-05-05 18:42 | 13.63663 | 100.83214 | 9399 ft | 293 kts | 16° |
| 2026-05-05 18:42 | 13.65580 | 100.83750 | 9015 ft | 282 kts | 16° |
| 2026-05-05 18:43 | 13.67463 | 100.84274 | 8662 ft | 278 kts | 18° |
| 2026-05-05 18:43 | 13.69312 | 100.84814 | 8293 ft | 275 kts | 18° |
| 2026-05-05 18:43 | 13.71149 | 100.85346 | 7922 ft | 273 kts | 18° |
| 2026-05-05 18:43 | 13.72974 | 100.85865 | 7532 ft | 271 kts | 17° |
| 2026-05-05 18:44 | 13.74798 | 100.86372 | 6964 ft | 270 kts | 17° |
| 2026-05-05 18:44 | 13.76606 | 100.86863 | 6385 ft | 267 kts | 16° |
| 2026-05-05 18:44 | 13.78329 | 100.87331 | 5869 ft | 263 kts | 16° |
| 2026-05-05 18:44 | 13.80142 | 100.87822 | 5366 ft | 258 kts | 16° |
| 2026-05-05 18:45 | 13.81866 | 100.88290 | 4891 ft | 255 kts | 16° |
| 2026-05-05 18:45 | 13.83583 | 100.88755 | 4363 ft | 254 kts | 16° |
| 2026-05-05 18:45 | 13.85292 | 100.89220 | 3826 ft | 258 kts | 16° |
| 2026-05-05 18:45 | 13.87045 | 100.89695 | 3308 ft | 263 kts | 14° |
| 2026-05-05 18:46 | 13.88869 | 100.89785 | 2768 ft | 266 kts | 350° |
| 2026-05-05 18:46 | 13.90554 | 100.89039 | 2252 ft | 267 kts | 323° |
| 2026-05-05 18:46 | 13.91706 | 100.87594 | 1962 ft | 257 kts | 294° |
| 2026-05-05 18:46 | 13.92046 | 100.85859 | 1774 ft | 243 kts | 266° |
| 2026-05-05 18:47 | 13.91541 | 100.84286 | 1722 ft | 225 kts | 237° |
| 2026-05-05 18:47 | 13.90584 | 100.83120 | 1713 ft | 208 kts | 225° |
| 2026-05-05 18:47 | 13.89581 | 100.82096 | 1713 ft | 195 kts | 224° |
| 2026-05-05 18:47 | 13.88452 | 100.81347 | 1739 ft | 193 kts | 205° |
| 2026-05-05 18:48 | 13.87181 | 100.80905 | 1738 ft | 193 kts | 196° |
| 2026-05-05 18:48 | 13.85876 | 100.80542 | 1728 ft | 195 kts | 196° |
| 2026-05-05 18:48 | 13.84565 | 100.80178 | 1724 ft | 195 kts | 195° |
| 2026-05-05 18:48 | 13.83268 | 100.79833 | 1722 ft | 195 kts | 195° |
| 2026-05-05 18:49 | 13.81963 | 100.79486 | 1721 ft | 194 kts | 195° |
| 2026-05-05 18:49 | 13.80685 | 100.79147 | 1709 ft | 179 kts | 195° |
| 2026-05-05 18:49 | 13.79534 | 100.78842 | 1704 ft | 161 kts | 195° |
| 2026-05-05 18:49 | 13.78492 | 100.78565 | 1718 ft | 155 kts | 195° |
| 2026-05-05 18:50 | 13.77455 | 100.78290 | 1642 ft | 154 kts | 195° |
| 2026-05-05 18:50 | 13.76420 | 100.78017 | 1446 ft | 152 kts | 195° |
| 2026-05-05 18:50 | 13.75409 | 100.77751 | 1174 ft | 149 kts | 195° |
| 2026-05-05 18:50 | 13.74421 | 100.77497 | 948 ft | 143 kts | 194° |
| 2026-05-05 18:51 | 13.73477 | 100.77253 | 753 ft | 137 kts | 194° |
| 2026-05-05 18:51 | 13.72572 | 100.77004 | 614 ft | 134 kts | 195° |
| 2026-05-05 18:51 | 13.71640 | 100.76757 | 509 ft | 142 kts | 194° |
| 2026-05-05 18:51 | 13.70671 | 100.76503 | 361 ft | 144 kts | 194° |
| 2026-05-05 18:52 | 13.69711 | 100.76251 | 175 ft | 142 kts | 194° |
| 2026-05-05 18:52 | 13.68756 | 100.75997 | 34 ft | 140 kts | 195° |
| 2026-05-05 18:52 | 13.67917 | 100.75773 | 19 ft | 96 kts | 195° |
| 2026-05-05 18:52 | 13.67498 | 100.75661 | 22 ft | 52 kts | 194° |
| 2026-05-05 18:53 | 13.67249 | 100.75586 | 22 ft | 20 kts | 203° |
| 2026-05-05 18:53 | 13.67175 | 100.75526 | 23 ft | 15 kts | 223° |
| 2026-05-05 18:53 | 13.67099 | 100.75443 | 22 ft | 17 kts | 243° |
| 2026-05-05 18:53 | 13.67099 | 100.75407 | 22 ft | 0 kts | 288° |
| 2026-05-05 18:54 | 13.67099 | 100.75406 | 22 ft | 0 kts | 289° |
| 2026-05-05 18:54 | 13.67108 | 100.75400 | 21 ft | 4 kts | 320° |
| 2026-05-05 18:54 | 13.67211 | 100.75398 | 22 ft | 26 kts | 13° |
| 2026-05-05 18:55 | 13.67269 | 100.75413 | 22 ft | 0 kts | 14° |
| 2026-05-05 18:56 | 13.67311 | 100.75425 | 22 ft | 13 kts | 14° |
| 2026-05-05 18:56 | 13.67436 | 100.75457 | 19 ft | 24 kts | 15° |
| 2026-05-05 18:56 | 13.67596 | 100.75499 | 21 ft | 21 kts | 14° |
| 2026-05-05 18:57 | 13.67724 | 100.75533 | 23 ft | 19 kts | 15° |
| 2026-05-05 18:57 | 13.67848 | 100.75565 | 22 ft | 17 kts | 15° |
| 2026-05-05 18:57 | 13.67958 | 100.75595 | 21 ft | 16 kts | 14° |
| 2026-05-05 18:57 | 13.68055 | 100.75620 | 19 ft | 13 kts | 15° |
| 2026-05-05 18:58 | 13.68072 | 100.75625 | 19 ft | 0 kts | 12° |
| 2026-05-05 18:58 | 13.68096 | 100.75598 | 23 ft | 1 kts | 292° |
| 2026-05-05 18:58 | 13.68103 | 100.75585 | 22 ft | 3 kts | 297° |
| 2026-05-05 18:58 | 13.68116 | 100.75561 | 21 ft | 5 kts | 306° |
| 2026-05-05 18:59 | 13.68143 | 100.75549 | 20 ft | 4 kts | 353° |
| 2026-05-05 18:59 | 13.68183 | 100.75552 | 23 ft | 8 kts | 3° |
| 2026-05-05 18:59 | 13.68245 | 100.75524 | 21 ft | 11 kts | 303° |
| 2026-05-05 18:59 | 13.68271 | 100.75432 | 19 ft | 15 kts | 284° |
| 2026-05-05 19:00 | 13.68300 | 100.75315 | 22 ft | 18 kts | 285° |
| 2026-05-05 19:00 | 13.68335 | 100.75179 | 21 ft | 21 kts | 284° |
| 2026-05-05 19:00 | 13.68333 | 100.75109 | 21 ft | 5 kts | 210° |
| 2026-05-05 19:00 | 13.68295 | 100.75097 | 21 ft | 8 kts | 195° |
| 2026-05-05 19:01 | 13.68266 | 100.75089 | 22 ft | 0 kts | 194° |
| 2026-05-05 19:01 | 13.68258 | 100.75087 | 22 ft | 1 kts | 194° |